Time;durP1;ratioP1;P1;durP2;ratioP2;P2;SDS_P1;SDS_P2;PMS_P1;PMS_P2;Temp;Humidity;BMP_temperature;BMP_pressure;BME280_temperature;BME280_humidity;BME280_pressure;Samples;Min_cycle;Max_cycle;Signal;HPM_P1;HPM_P2
2023/04/22 00:01:29;;;;;;;4.60;3.28;;;;;;;11.74;70.13;100976.38;4997686;28;20522;-93
2023/04/22 00:03:54;;;;;;;3.65;2.53;;;;;;;11.72;69.76;100967.00;4997810;28;20032;-92
2023/04/22 00:06:20;;;;;;;4.97;3.50;;;;;;;11.72;69.80;100967.84;5014191;28;20037;-92
2023/04/22 00:08:45;;;;;;;4.35;3.45;;;;;;;11.75;69.76;100975.47;5013516;28;20033;-91
2023/04/22 00:11:10;;;;;;;5.13;3.30;;;;;;;11.72;69.83;100967.84;5013786;28;20033;-92
2023/04/22 00:13:36;;;;;;;4.80;3.28;;;;;;;11.63;70.59;100955.34;5013802;28;20029;-91
2023/04/22 00:16:02;;;;;;;6.05;3.90;;;;;;;11.65;70.20;100971.66;5014010;28;20033;-90
2023/04/22 00:18:28;;;;;;;5.72;2.95;;;;;;;11.46;70.46;100950.09;4997380;28;20057;-92
2023/04/22 00:20:53;;;;;;;6.13;3.10;;;;;;;11.53;71.30;100979.16;5030556;28;20509;-91
2023/04/22 00:23:19;;;;;;;5.05;3.53;;;;;;;11.53;71.60;100976.56;5029824;28;20034;-91
2023/04/22 00:25:45;;;;;;;6.05;3.13;;;;;;;11.50;71.59;100985.31;5013691;28;20018;-93
2023/04/22 00:28:10;;;;;;;3.20;2.13;;;;;;;11.32;71.52;100986.19;4997451;28;20029;-91
2023/04/22 00:30:35;;;;;;;4.53;2.45;;;;;;;11.32;71.29;100991.38;5013815;28;20036;-91
2023/04/22 00:33:01;;;;;;;3.92;2.47;;;;;;;11.23;69.97;100992.63;5013734;28;20041;-90
2023/04/22 00:35:26;;;;;;;3.30;1.80;;;;;;;11.08;70.17;100993.31;5031348;28;20446;-92
2023/04/22 00:37:52;;;;;;;3.35;2.30;;;;;;;11.01;70.48;100991.91;5029923;28;20029;-92
2023/04/22 00:40:17;;;;;;;2.70;1.98;;;;;;;10.87;70.94;100993.38;5013744;28;20021;-90
2023/04/22 00:42:43;;;;;;;2.90;2.15;;;;;;;10.81;70.55;100990.19;5014984;28;20104;-92
2023/04/22 00:45:10;;;;;;;3.75;2.70;;;;;;;10.77;70.70;100992.09;5033794;28;20422;-92
2023/04/22 00:47:35;;;;;;;3.97;2.63;;;;;;;10.76;70.45;100989.56;5000896;28;20505;-92
2023/04/22 00:50:01;;;;;;;1.77;1.35;;;;;;;10.48;71.59;100972.66;5001143;28;20030;-91
2023/04/22 00:52:26;;;;;;;2.90;2.17;;;;;;;10.56;72.43;101004.22;5017021;28;20029;-91
2023/04/22 00:54:52;;;;;;;2.72;1.85;;;;;;;10.54;72.49;100995.69;5033434;28;20025;-91
2023/04/22 00:57:17;;;;;;;9.13;2.33;;;;;;;10.56;72.22;101003.38;5000605;28;20559;-92
2023/04/22 00:59:43;;;;;;;3.33;2.35;;;;;;;10.61;71.72;101007.44;5016989;28;20033;-92
2023/04/22 01:02:08;;;;;;;5.20;2.72;;;;;;;10.44;72.24;100993.56;5017131;28;20033;-92
2023/04/22 01:04:34;;;;;;;4.30;3.00;;;;;;;10.35;72.80;100981.84;5033427;28;20053;-91
2023/04/22 01:07:00;;;;;;;5.35;3.03;;;;;;;10.47;73.08;100996.84;5016879;28;20414;-92
2023/04/22 01:09:25;;;;;;;3.03;1.77;;;;;;;10.50;72.27;101001.88;5033546;28;20102;-91
2023/04/22 01:11:51;;;;;;;3.80;2.08;;;;;;;10.39;73.04;100995.47;5016928;28;20616;-92
2023/04/22 01:14:16;;;;;;;3.00;2.05;;;;;;;10.48;73.08;100998.53;5033269;28;20096;-92
2023/04/22 01:16:42;;;;;;;2.53;2.00;;;;;;;10.49;72.87;100992.44;5034014;28;20064;-92
2023/04/22 01:19:07;;;;;;;5.45;3.10;;;;;;;10.52;72.51;100994.91;5000368;28;20036;-91
2023/04/22 01:21:34;;;;;;;3.00;2.35;;;;;;;10.61;72.23;100998.81;5033177;28;20041;-93
2023/04/22 01:24:00;;;;;;;3.10;2.28;;;;;;;10.42;72.41;100972.06;5033348;28;20243;-93
2023/04/22 01:26:25;;;;;;;3.50;2.25;;;;;;;10.52;73.48;101015.63;5033086;28;20025;-92
2023/04/22 01:28:51;;;;;;;6.22;2.72;;;;;;;10.55;73.65;101005.13;5033226;28;20062;-91
2023/04/22 01:31:17;;;;;;;3.58;2.35;;;;;;;10.65;72.95;101004.72;5016346;28;20025;-92
2023/04/22 01:33:43;;;;;;;6.55;3.13;;;;;;;10.70;72.84;101013.97;5000031;28;20028;-92
2023/04/22 01:36:09;;;;;;;3.95;2.25;;;;;;;10.67;72.50;101003.75;5032851;28;20033;-92
2023/04/22 01:38:35;;;;;;;4.95;2.47;;;;;;;10.66;72.20;100996.06;5032783;28;20026;-90
2023/04/22 01:41:01;;;;;;;4.32;3.28;;;;;;;10.80;72.37;101022.16;5016418;28;20095;-91
2023/04/22 01:43:26;;;;;;;5.53;2.45;;;;;;;10.81;71.98;101022.09;5016494;28;20030;-92
2023/04/22 01:45:52;;;;;;;2.58;2.05;;;;;;;10.76;72.21;101023.22;5016437;28;20033;-92
2023/04/22 01:48:18;;;;;;;3.20;1.95;;;;;;;10.76;71.92;101018.03;5016073;28;20475;-91
2023/04/22 01:50:43;;;;;;;4.85;2.22;;;;;;;10.53;72.03;100991.41;4999752;28;20450;-92
2023/04/22 01:53:10;;;;;;;4.07;2.50;;;;;;;10.47;72.16;101002.03;5032597;28;20033;-91
2023/04/22 01:55:37;;;;;;;2.85;2.13;;;;;;;10.63;72.19;101016.00;4999095;28;20059;-90
2023/04/22 01:58:03;;;;;;;3.15;2.28;;;;;;;10.53;72.59;101006.94;5015901;28;20033;-90
2023/04/22 02:00:28;;;;;;;2.55;2.35;;;;;;;10.54;72.73;101024.16;5032535;28;20033;-90
2023/04/22 02:02:54;;;;;;;7.47;2.45;;;;;;;10.32;72.38;100992.31;4999452;28;20030;-91
2023/04/22 02:05:19;;;;;;;4.32;2.65;;;;;;;10.56;72.70;101027.50;5032184;28;20108;-92
2023/04/22 02:07:45;;;;;;;4.78;2.58;;;;;;;10.46;72.45;101021.03;4999708;28;20041;-92
2023/04/22 02:10:10;;;;;;;3.25;2.22;;;;;;;10.55;72.08;101030.16;5032214;28;20088;-92
2023/04/22 02:12:36;;;;;;;2.50;1.70;;;;;;;10.49;72.97;101025.22;5032184;28;20025;-90
2023/04/22 02:15:01;;;;;;;3.70;2.55;;;;;;;10.60;71.86;101023.84;5032180;28;20036;-91
2023/04/22 02:17:27;;;;;;;3.08;2.08;;;;;;;10.53;71.71;101012.13;5015429;28;20064;-92
2023/04/22 02:19:53;;;;;;;2.85;2.03;;;;;;;10.65;71.73;101023.69;5031757;28;20036;-91
2023/04/22 02:22:18;;;;;;;3.28;2.17;;;;;;;10.59;71.98;101017.00;5015808;28;20033;-91
2023/04/22 02:24:44;;;;;;;3.58;2.10;;;;;;;10.62;71.73;101018.66;5015448;28;20061;-91
2023/04/22 02:27:10;;;;;;;3.95;2.75;;;;;;;10.49;71.43;101004.53;5015559;28;20500;-91
2023/04/22 02:29:35;;;;;;;3.28;2.08;;;;;;;10.56;71.31;101019.75;5031846;28;20109;-92
2023/04/22 02:32:00;;;;;;;2.83;2.30;;;;;;;10.59;71.67;101011.00;5015162;28;20032;-92
2023/04/22 02:34:26;;;;;;;3.03;2.38;;;;;;;10.53;71.83;101006.94;5032521;28;20029;-91
2023/04/22 02:36:51;;;;;;;5.15;2.75;;;;;;;10.55;71.83;101015.47;5015663;28;20029;-92
2023/04/22 02:39:17;;;;;;;3.65;2.13;;;;;;;10.52;72.04;101013.03;5015239;28;20412;-92
2023/04/22 02:41:42;;;;;;;3.08;2.10;;;;;;;10.49;72.02;101013.13;5015186;28;20037;-91
2023/04/22 02:44:08;;;;;;;5.00;2.55;;;;;;;10.34;73.00;101017.22;5015172;28;20521;-91
2023/04/22 02:46:33;;;;;;;3.92;2.38;;;;;;;10.21;72.63;100994.47;5031452;28;20021;-91
2023/04/22 02:48:59;;;;;;;5.97;2.83;;;;;;;10.33;72.70;101019.88;5031318;28;20030;-90
2023/04/22 02:51:25;;;;;;;4.30;2.88;;;;;;;10.37;72.45;101026.59;5015233;28;20037;-92
2023/04/22 02:53:51;;;;;;;2.83;2.03;;;;;;;10.31;72.83;101021.66;5015298;28;20052;-91
2023/04/22 02:56:16;;;;;;;3.85;2.63;;;;;;;10.31;72.61;101006.13;5014979;28;20483;-91
2023/04/22 02:58:42;;;;;;;3.88;2.45;;;;;;;10.24;73.08;101015.91;5031178;28;20034;-92
2023/04/22 03:01:08;;;;;;;3.00;2.67;;;;;;;10.26;73.87;101008.09;5014901;28;20037;-91
2023/04/22 03:03:33;;;;;;;5.82;3.15;;;;;;;10.01;73.76;100972.88;5030911;28;20029;-92
2023/04/22 03:05:59;;;;;;;4.25;3.03;;;;;;;10.18;73.90;101021.31;5031314;28;20036;-92
2023/04/22 03:08:24;;;;;;;2.65;2.25;;;;;;;10.04;74.12;100998.59;5014938;28;20044;-91
2023/04/22 03:10:50;;;;;;;3.88;2.88;;;;;;;10.09;74.39;101013.06;5032239;28;20032;-92
2023/04/22 03:13:15;;;;;;;2.78;2.03;;;;;;;10.10;74.43;101017.34;5032159;28;20029;-92
2023/04/22 03:15:41;;;;;;;3.33;1.85;;;;;;;10.21;73.84;101022.91;5014725;28;20040;-92
2023/04/22 03:18:06;;;;;;;4.90;2.58;;;;;;;10.16;74.32;101019.69;4997623;28;20111;-91
2023/04/22 03:20:32;;;;;;;4.85;2.65;;;;;;;10.16;75.22;101027.44;4998231;28;20056;-91
2023/04/22 03:22:58;;;;;;;3.38;2.40;;;;;;;10.21;75.06;101025.50;5030989;28;20033;-91
2023/04/22 03:25:23;;;;;;;4.03;2.75;;;;;;;10.29;74.21;101026.06;5030875;28;20022;-91
2023/04/22 03:27:49;;;;;;;5.18;2.35;;;;;;;10.29;73.86;101029.47;5030978;28;20075;-92
2023/04/22 03:30:14;;;;;;;8.23;2.85;;;;;;;10.26;74.30;101028.78;5030711;28;20034;-93
2023/04/22 03:32:40;;;;;;;3.83;2.85;;;;;;;10.34;74.61;101031.91;5014149;28;20056;-92
2023/04/22 03:35:06;;;;;;;3.60;2.63;;;;;;;10.31;74.21;101032.84;5014204;28;20453;-93
2023/04/22 03:37:31;;;;;;;5.00;3.17;;;;;;;10.38;74.30;101033.44;5030869;28;20026;-91
2023/04/22 03:39:56;;;;;;;2.83;2.35;;;;;;;10.42;74.39;101022.06;5014333;28;20475;-90
2023/04/22 03:42:22;;;;;;;3.50;2.20;;;;;;;10.58;74.33;101033.44;5030673;28;20029;-91
2023/04/22 03:44:47;;;;;;;3.70;2.90;;;;;;;10.53;74.13;101022.47;5014302;28;20029;-91
2023/04/22 03:47:13;;;;;;;3.55;3.10;;;;;;;10.48;73.77;101034.72;5030074;28;20033;-91
2023/04/22 03:49:38;;;;;;;4.32;3.03;;;;;;;10.52;73.79;101038.91;4997720;28;20030;-91
2023/04/22 03:52:04;;;;;;;4.80;3.15;;;;;;;10.50;73.76;101024.31;5030547;28;20036;-92
2023/04/22 03:54:29;;;;;;;11.88;3.97;;;;;;;10.54;74.79;101034.50;5030286;28;20498;-92
2023/04/22 03:56:55;;;;;;;4.88;3.60;;;;;;;10.50;75.04;101034.66;5014261;28;20091;-92
2023/04/22 03:59:21;;;;;;;5.13;3.30;;;;;;;10.64;74.96;101050.47;5030387;28;20095;-91
2023/04/22 04:01:46;;;;;;;5.88;4.15;;;;;;;10.63;74.53;101059.13;5013669;28;20080;-91
2023/04/22 04:04:12;;;;;;;6.78;3.97;;;;;;;10.66;74.35;101047.81;5030634;28;20021;-91
2023/04/22 04:06:37;;;;;;;6.30;4.10;;;;;;;10.62;75.54;101058.28;5014056;28;20044;-92
2023/04/22 04:09:03;;;;;;;7.40;4.35;;;;;;;10.72;75.56;101063.94;5014095;28;20510;-91
2023/04/22 04:11:29;;;;;;;5.82;4.13;;;;;;;10.74;75.80;101069.88;5014035;28;20025;-92
2023/04/22 04:13:55;;;;;;;6.10;4.07;;;;;;;10.74;75.46;101061.25;5013797;28;20025;-91
2023/04/22 04:16:20;;;;;;;12.55;4.28;;;;;;;10.79;75.42;101070.50;5029969;28;20033;-91
2023/04/22 04:18:49;;;;;;;5.35;4.18;;;;;;;10.87;75.05;101072.75;5016532;28;20053;-93
2023/04/22 04:21:15;;;;;;;7.47;4.72;;;;;;;10.94;75.11;101073.34;5017900;28;20033;-91
2023/04/22 04:23:40;;;;;;;8.35;4.22;;;;;;;10.93;74.28;101088.03;5034395;28;20036;-92
2023/04/22 04:26:06;;;;;;;6.80;4.13;;;;;;;10.88;73.86;101059.75;5001366;28;20028;-91
2023/04/22 04:28:33;;;;;;;9.50;4.38;;;;;;;11.04;73.74;101093.59;5035277;28;20036;-91
2023/04/22 04:30:59;;;;;;;7.03;4.70;;;;;;;10.84;73.73;101047.88;5001315;28;20065;-92
2023/04/22 04:33:24;;;;;;;6.75;4.10;;;;;;;11.13;73.88;101100.97;5034167;28;20071;-91
2023/04/22 04:35:50;;;;;;;5.80;3.97;;;;;;;11.13;72.04;101113.91;5017876;28;20029;-92
2023/04/22 04:38:15;;;;;;;5.68;3.45;;;;;;;11.08;71.15;101099.47;5017780;28;20091;-91
2023/04/22 04:40:42;;;;;;;7.43;3.72;;;;;;;10.98;71.18;101099.03;5001166;28;20036;-93
2023/04/22 04:43:08;;;;;;;6.18;3.03;;;;;;;10.94;71.55;101122.53;5033910;28;20048;-91
2023/04/22 04:45:35;;;;;;;4.40;2.95;;;;;;;10.88;71.68;101118.44;5000703;28;20478;-91
2023/04/22 04:48:01;;;;;;;5.53;3.08;;;;;;;10.76;72.61;101116.38;5017726;28;20036;-92
2023/04/22 04:50:27;;;;;;;5.28;3.55;;;;;;;10.72;72.55;101112.25;5016116;28;20030;-91
2023/04/22 04:52:52;;;;;;;2.17;1.95;;;;;;;10.77;72.91;101112.88;5017169;28;20032;-92
2023/04/22 04:55:18;;;;;;;3.70;2.83;;;;;;;10.87;73.84;101121.94;5017243;28;20068;-91
2023/04/22 04:57:44;;;;;;;6.07;2.25;;;;;;;10.79;74.30;101121.41;5017297;28;20025;-92
2023/04/22 05:00:09;;;;;;;2.75;2.15;;;;;;;10.80;74.85;101123.09;5017062;28;20029;-91
2023/04/22 05:02:35;;;;;;;3.75;2.47;;;;;;;10.79;74.94;101121.41;5017348;28;20175;-91
2023/04/22 05:05:01;;;;;;;6.82;3.30;;;;;;;10.92;75.28;101132.97;5001009;28;20040;-92
2023/04/22 05:07:26;;;;;;;4.85;3.08;;;;;;;11.02;74.84;101133.41;5017387;28;20030;-90
2023/04/22 05:09:52;;;;;;;3.72;3.03;;;;;;;11.09;75.10;101119.28;5033639;28;20030;-91
2023/04/22 05:12:17;;;;;;;5.13;3.25;;;;;;;10.95;74.68;101096.59;5033331;28;20026;-92
2023/04/22 05:14:43;;;;;;;5.90;3.75;;;;;;;11.13;75.12;101115.66;5033010;28;20033;-91
2023/04/22 05:17:09;;;;;;;5.53;2.55;;;;;;;11.31;75.44;101129.56;5033118;28;20049;-91
2023/04/22 05:19:34;;;;;;;5.45;4.00;;;;;;;11.36;75.73;101128.44;5016808;28;20052;-92
2023/04/22 05:22:00;;;;;;;5.35;4.13;;;;;;;11.47;74.97;101126.22;5000465;28;20549;-92
2023/04/22 05:24:25;;;;;;;7.38;4.13;;;;;;;11.50;75.14;101122.63;5016650;28;20083;-93
2023/04/22 05:26:51;;;;;;;8.52;4.90;;;;;;;11.54;75.72;101120.75;5032786;28;20155;-92
2023/04/22 05:29:16;;;;;;;5.93;4.55;;;;;;;11.63;75.63;101128.97;5014676;28;20022;-92
2023/04/22 05:31:41;;;;;;;7.05;4.88;;;;;;;11.65;75.58;101116.78;5033812;28;20029;-92
2023/04/22 05:34:07;;;;;;;8.57;4.00;;;;;;;11.83;74.66;101135.03;5016489;28;20036;-92
2023/04/22 05:36:32;;;;;;;9.07;3.90;;;;;;;11.87;74.38;101118.41;5016385;28;20036;-92
2023/04/22 05:38:58;;;;;;;7.53;4.75;;;;;;;11.95;75.08;101129.25;5016183;28;20091;-92
2023/04/22 05:41:23;;;;;;;7.78;3.35;;;;;;;12.05;74.29;101135.69;5032491;28;20495;-91
2023/04/22 05:43:49;;;;;;;6.13;3.80;;;;;;;12.14;74.73;101135.28;5032781;28;20116;-92
2023/04/22 05:46:14;;;;;;;5.13;3.47;;;;;;;12.24;74.72;101143.47;5016127;28;20033;-92
2023/04/22 05:48:40;;;;;;;10.60;4.80;;;;;;;12.34;74.73;101140.34;5032719;28;20036;-92
2023/04/22 05:51:05;;;;;;;11.40;4.47;;;;;;;12.42;74.47;101142.59;5016330;28;20029;-92
2023/04/22 05:53:30;;;;;;;4.78;3.42;;;;;;;12.48;75.35;101144.03;4999943;28;20040;-92
2023/04/22 05:55:56;;;;;;;5.20;3.72;;;;;;;12.45;74.63;101136.41;5032092;28;20398;-92
2023/04/22 05:58:21;;;;;;;6.32;3.78;;;;;;;12.34;74.50;101109.22;5015873;28;20407;-90
2023/04/22 06:00:47;;;;;;;5.95;3.78;;;;;;;12.62;74.12;101136.41;5032418;28;20026;-92
2023/04/22 06:03:12;;;;;;;5.60;3.45;;;;;;;12.72;74.07;101144.59;5032498;28;20041;-91
2023/04/22 06:05:38;;;;;;;4.97;3.78;;;;;;;12.84;73.62;101146.56;5032432;28;20029;-92
2023/04/22 06:08:03;;;;;;;14.57;5.13;;;;;;;12.66;73.92;101113.72;4999459;28;20030;-91
2023/04/22 06:10:28;;;;;;;5.85;3.70;;;;;;;12.91;73.62;101151.38;5031907;28;20029;-91
2023/04/22 06:12:54;;;;;;;14.73;6.18;;;;;;;12.99;73.89;101152.78;4999185;28;20529;-92
2023/04/22 06:15:20;;;;;;;9.63;4.78;;;;;;;13.10;73.40;101159.09;5031910;28;20061;-91
2023/04/22 06:17:47;;;;;;;9.85;4.97;;;;;;;13.10;73.11;101155.66;5031961;28;20111;-92
2023/04/22 06:20:12;;;;;;;7.70;4.07;;;;;;;13.11;72.65;101146.94;5015431;28;20104;-92
2023/04/22 06:22:38;;;;;;;6.00;3.65;;;;;;;13.16;73.35;101163.13;5032129;28;20505;-92
2023/04/22 06:25:04;;;;;;;7.60;4.38;;;;;;;13.16;73.34;101168.31;5015292;28;20053;-92
2023/04/22 06:27:29;;;;;;;6.05;3.72;;;;;;;13.22;73.11;101169.81;5031939;28;20469;-92
2023/04/22 06:29:55;;;;;;;10.10;5.18;;;;;;;12.97;73.22;101142.44;4999326;28;20491;-92
2023/04/22 06:32:20;;;;;;;10.70;4.72;;;;;;;12.91;73.30;101129.78;5031787;28;20479;-91
2023/04/22 06:34:46;;;;;;;8.70;5.00;;;;;;;13.19;73.33;101176.00;5032952;28;20022;-92
2023/04/22 06:37:11;;;;;;;7.22;5.13;;;;;;;13.31;73.25;101185.75;4999129;28;20037;-90
2023/04/22 06:39:36;;;;;;;7.35;5.15;;;;;;;13.31;72.61;101175.38;4998561;28;20490;-92
2023/04/22 06:42:02;;;;;;;10.88;5.47;;;;;;;13.41;72.17;101186.13;4998461;28;20410;-91
2023/04/22 06:44:28;;;;;;;9.57;5.75;;;;;;;13.46;71.35;101184.97;5015199;28;20025;-91
2023/04/22 06:46:54;;;;;;;6.93;4.43;;;;;;;13.46;71.50;101179.75;5031591;28;20028;-92
2023/04/22 06:49:19;;;;;;;8.63;4.32;;;;;;;13.56;71.25;101189.69;5031572;28;20037;-92
2023/04/22 06:51:45;;;;;;;14.55;5.97;;;;;;;13.61;71.08;101178.13;5014989;28;20026;-92
2023/04/22 06:54:10;;;;;;;8.70;5.90;;;;;;;13.71;69.98;101178.47;5030910;28;20092;-92
2023/04/22 06:56:36;;;;;;;6.25;4.15;;;;;;;13.86;69.44;101182.84;5032331;28;20049;-92
2023/04/22 06:59:01;;;;;;;13.52;5.60;;;;;;;13.96;67.39;101178.84;5014810;28;20036;-92
2023/04/22 07:01:26;;;;;;;6.18;4.00;;;;;;;13.98;66.18;101176.16;5014940;28;20025;-92
2023/04/22 07:03:52;;;;;;;10.70;4.65;;;;;;;14.08;65.27;101177.34;5014875;28;20033;-92
2023/04/22 07:06:17;;;;;;;11.30;6.00;;;;;;;14.21;64.97;101187.91;5014645;28;20455;-92
2023/04/22 07:08:43;;;;;;;6.93;3.90;;;;;;;14.22;63.59;101180.00;4997907;28;20159;-92
2023/04/22 07:11:09;;;;;;;9.15;4.45;;;;;;;14.34;63.03;101181.94;5014728;28;20025;-93
2023/04/22 07:13:34;;;;;;;6.10;4.38;;;;;;;14.44;62.31;101177.06;5014678;28;20034;-92
2023/04/22 07:16:00;;;;;;;7.22;4.82;;;;;;;14.53;62.62;101189.59;5031167;28;20514;-93
2023/04/22 07:18:26;;;;;;;10.95;5.25;;;;;;;14.77;62.07;101184.75;5030615;28;20056;-92
2023/04/22 07:20:51;;;;;;;14.80;5.68;;;;;;;14.99;59.96;101192.16;5014574;28;20116;-92
2023/04/22 07:23:17;;;;;;;9.73;3.67;;;;;;;15.04;58.75;101194.50;5030708;28;20034;-92
2023/04/22 07:25:42;;;;;;;7.65;4.75;;;;;;;15.20;58.15;101184.84;5014627;28;20049;-92
2023/04/22 07:28:08;;;;;;;6.85;4.20;;;;;;;15.45;58.58;101194.66;5030814;28;20415;-93
2023/04/22 07:30:33;;;;;;;7.68;4.63;;;;;;;15.78;59.34;101192.63;5014109;28;20025;-92
2023/04/22 07:32:58;;;;;;;9.38;4.72;;;;;;;15.99;55.56;101200.91;4998199;28;20099;-93
2023/04/22 07:35:24;;;;;;;6.80;3.83;;;;;;;16.08;56.99;101196.88;5014548;28;20053;-92
2023/04/22 07:37:49;;;;;;;7.30;3.50;;;;;;;16.03;53.97;101186.75;5030298;28;20025;-92
2023/04/22 07:40:15;;;;;;;5.55;4.05;;;;;;;16.13;54.21;101197.44;5014695;28;20426;-91
2023/04/22 07:42:40;;;;;;;5.75;3.78;;;;;;;16.21;53.45;101189.09;5014164;28;20061;-93
2023/04/22 07:45:06;;;;;;;13.88;3.50;;;;;;;16.35;53.21;101197.75;5030638;28;20036;-92
2023/04/22 07:47:32;;;;;;;6.93;4.13;;;;;;;16.39;53.48;101200.97;5014193;28;20552;-92
2023/04/22 07:49:57;;;;;;;14.90;4.82;;;;;;;16.56;54.79;101202.53;5029929;28;20032;-91
2023/04/22 07:52:23;;;;;;;5.40;3.42;;;;;;;16.73;53.21;101202.31;5029227;28;20506;-93
2023/04/22 07:54:48;;;;;;;8.65;4.10;;;;;;;16.99;51.60;101205.78;5031092;28;20495;-93
2023/04/22 07:57:14;;;;;;;6.95;4.25;;;;;;;16.93;51.24;101203.59;5013496;28;20052;-93
2023/04/22 07:59:39;;;;;;;5.65;3.65;;;;;;;17.00;50.86;101209.25;5030500;28;20030;-92
2023/04/22 08:02:05;;;;;;;6.72;3.50;;;;;;;17.11;50.62;101212.84;5014209;28;20077;-93
2023/04/22 08:04:30;;;;;;;6.00;3.63;;;;;;;17.20;50.69;101212.19;5013851;28;20092;-93
2023/04/22 08:06:56;;;;;;;8.45;3.60;;;;;;;17.27;50.67;101217.84;4997289;28;20107;-92
2023/04/22 08:09:21;;;;;;;8.10;2.75;;;;;;;17.54;49.10;101211.69;5013984;28;20033;-92
2023/04/22 08:11:47;;;;;;;5.00;3.05;;;;;;;17.65;48.56;101211.78;5013975;28;20025;-91
2023/04/22 08:14:12;;;;;;;4.88;2.65;;;;;;;17.76;47.91;101214.53;4997583;28;20029;-91
2023/04/22 08:16:38;;;;;;;3.85;2.67;;;;;;;17.93;47.04;101202.88;5030555;28;20029;-92
2023/04/22 08:19:04;;;;;;;6.55;3.00;;;;;;;17.96;47.11;101203.50;4997303;28;20029;-93
2023/04/22 08:21:30;;;;;;;10.68;2.88;;;;;;;17.85;46.50;101192.09;5013835;28;20029;-92
2023/04/22 08:23:55;;;;;;;4.78;2.83;;;;;;;18.04;45.91;101206.41;5030507;28;20031;-92
2023/04/22 08:26:21;;;;;;;5.50;2.42;;;;;;;18.09;46.24;101207.84;4997463;28;20033;-90
2023/04/22 08:28:46;;;;;;;4.80;3.13;;;;;;;18.20;46.87;101202.72;5030384;28;20025;-93
2023/04/22 08:31:12;;;;;;;5.40;2.70;;;;;;;18.05;46.40;101170.59;4997470;28;20037;-91
2023/04/22 08:33:39;;;;;;;8.32;2.63;;;;;;;18.14;46.49;101188.25;5030382;28;20036;-92
2023/04/22 08:36:04;;;;;;;3.90;2.85;;;;;;;18.27;46.35;101198.69;5030162;28;20036;-91
2023/04/22 08:38:30;;;;;;;6.78;2.33;;;;;;;18.31;45.65;101189.66;4997058;28;20033;-92
2023/04/22 08:40:56;;;;;;;4.07;2.53;;;;;;;18.43;45.62;101193.19;5030430;28;20091;-93
2023/04/22 08:43:21;;;;;;;7.05;3.28;;;;;;;18.36;46.72;101169.19;5014675;28;20091;-94
2023/04/22 08:45:47;;;;;;;10.27;3.08;;;;;;;18.74;45.33;101197.03;5030969;28;20021;-93
2023/04/22 08:48:12;;;;;;;3.65;2.70;;;;;;;18.87;45.47;101200.41;5029975;28;20037;-93
2023/04/22 08:50:40;;;;;;;7.57;3.22;;;;;;;19.04;44.11;101186.03;5013034;28;20018;-93
2023/04/22 08:53:06;;;;;;;3.88;2.60;;;;;;;19.01;43.69;101174.00;5030098;28;20497;-92
2023/04/22 08:55:31;;;;;;;3.65;2.67;;;;;;;19.20;43.08;101197.06;5029634;28;20037;-93
2023/04/22 08:57:59;;;;;;;5.35;3.03;;;;;;;19.34;43.72;101206.47;5014330;28;20029;-91
2023/04/22 09:00:25;;;;;;;3.72;2.47;;;;;;;19.32;43.04;101183.00;5014890;28;20479;-93
2023/04/22 09:02:51;;;;;;;4.82;2.50;;;;;;;19.45;42.29;101196.00;5030480;28;20034;-93
2023/04/22 09:05:16;;;;;;;5.70;2.55;;;;;;;19.50;42.79;101191.25;5016493;28;20036;-92
2023/04/22 09:07:42;;;;;;;4.20;2.28;;;;;;;19.57;43.05;101194.25;5033554;28;20033;-92
2023/04/22 09:10:08;;;;;;;4.25;2.50;;;;;;;19.73;41.94;101189.47;5001067;28;20426;-93
2023/04/22 09:12:33;;;;;;;3.75;2.50;;;;;;;19.70;41.85;101185.31;5017368;28;20029;-93
2023/04/22 09:14:59;;;;;;;3.40;2.47;;;;;;;19.63;41.93;101155.22;5034103;28;20506;-93
2023/04/22 09:17:34;;;;;;;5.00;2.50;;;;;;;20.00;41.87;101195.16;5034172;28;20045;-93
2023/04/22 09:20:00;;;;;;;8.30;2.53;;;;;;;20.08;41.65;101184.06;5017146;28;20475;-93
2023/04/22 09:22:27;;;;;;;3.17;2.15;;;;;;;20.19;41.91;101186.66;5033581;28;20033;-93
2023/04/22 09:24:52;;;;;;;4.30;2.63;;;;;;;20.19;41.37;101178.78;5018627;28;20478;-93
2023/04/22 09:27:18;;;;;;;3.75;2.53;;;;;;;20.24;41.52;101175.75;5017251;28;20026;-93
2023/04/22 09:29:48;;;;;;;3.95;2.58;;;;;;;20.29;40.97;101174.44;5017052;28;20064;-93
2023/04/22 09:32:14;;;;;;;3.28;2.35;;;;;;;20.34;40.97;101176.69;5016410;28;20490;-92
2023/04/22 09:34:48;;;;;;;4.38;3.00;;;;;;;20.30;40.63;101143.75;5032840;28;20104;-93
2023/04/22 09:37:13;;;;;;;4.70;1.95;;;;;;;20.55;40.78;101176.75;5016771;28;20051;-92
2023/04/22 09:39:41;;;;;;;3.78;2.65;;;;;;;20.49;40.81;101153.63;5016869;28;20621;-93
2023/04/22 09:42:07;;;;;;;2.67;1.92;;;;;;;20.59;39.74;101154.53;5033109;28;20051;-92
2023/04/22 09:44:34;;;;;;;3.45;2.38;;;;;;;20.70;39.96;101172.88;5032683;28;20475;-92
2023/04/22 09:46:59;;;;;;;3.28;2.30;;;;;;;20.88;39.17;101167.88;5016210;28;20108;-93
2023/04/22 09:49:26;;;;;;;4.15;2.38;;;;;;;20.83;39.10;101160.38;5016196;28;20030;-92
2023/04/22 09:51:56;;;;;;;3.70;2.60;;;;;;;20.79;39.16;101158.97;5000114;28;20216;-92
2023/04/22 09:54:21;;;;;;;3.63;2.22;;;;;;;20.78;39.17;101144.16;5000223;28;20048;-92
2023/04/22 09:56:48;;;;;;;7.40;3.25;;;;;;;21.01;39.18;101157.16;5015923;28;20030;-92
2023/04/22 09:59:18;;;;;;;3.90;2.35;;;;;;;21.11;37.50;101151.00;5000658;28;20040;-93
2023/04/22 10:01:44;;;;;;;4.18;2.38;;;;;;;21.09;37.07;101162.63;5000809;28;20033;-94
2023/04/22 10:04:10;;;;;;;5.35;1.95;;;;;;;21.04;37.23;101149.88;5032598;28;20033;-93
2023/04/22 10:06:35;;;;;;;2.75;1.95;;;;;;;21.08;37.28;101150.44;5017308;28;20034;-93
2023/04/22 10:09:01;;;;;;;4.55;2.13;;;;;;;21.17;36.85;101149.66;5000179;28;20021;-91
2023/04/22 10:11:27;;;;;;;4.22;2.70;;;;;;;21.22;37.24;101142.19;5032870;28;20414;-93
2023/04/22 10:13:52;;;;;;;8.23;4.15;;;;;;;21.36;38.16;101133.97;5016280;28;20029;-93
2023/04/22 10:16:19;;;;;;;5.80;2.53;;;;;;;21.55;37.43;101127.97;5032921;28;20036;-95
2023/04/22 10:18:44;;;;;;;5.63;2.40;;;;;;;21.71;36.03;101122.16;5015593;28;20049;-94
2023/04/22 10:21:10;;;;;;;3.00;1.90;;;;;;;21.74;35.54;101116.66;5033289;28;20033;-91
2023/04/22 10:23:35;;;;;;;3.22;2.10;;;;;;;21.80;36.44;101120.53;4999660;28;20021;-95
2023/04/22 10:26:03;;;;;;;3.47;2.30;;;;;;;21.83;36.29;101123.75;5001379;28;20033;-94
2023/04/22 10:28:29;;;;;;;3.85;2.30;;;;;;;22.02;34.44;101113.22;5000002;28;20029;-94
2023/04/22 10:30:55;;;;;;;3.10;1.88;;;;;;;21.96;35.86;101111.13;5015956;28;20025;-93
2023/04/22 10:33:20;;;;;;;3.58;2.10;;;;;;;22.10;36.17;101112.56;5033338;28;20052;-94
2023/04/22 10:36:05;;;;;;;5.20;2.50;;;;;;;22.07;35.04;101110.22;5034660;28;20032;-94
2023/04/22 10:38:40;;;;;;;7.38;2.35;;;;;;;22.09;33.94;101120.59;5033072;28;20025;-92
2023/04/22 10:41:06;;;;;;;5.15;2.25;;;;;;;21.99;34.08;101102.94;5016774;28;20487;-94
2023/04/22 10:43:42;;;;;;;3.38;2.15;;;;;;;22.08;33.72;101108.41;4999055;28;20040;-93
2023/04/22 10:46:35;;;;;;;2.72;1.85;;;;;;;22.12;34.37;101112.41;5032833;28;20041;-92
2023/04/22 10:49:16;;;;;;;3.33;1.90;;;;;;;22.08;34.71;101105.78;5051592;28;20029;-94
2023/04/22 10:51:54;;;;;;;3.25;1.92;;;;;;;22.14;33.62;101107.88;5032987;28;20075;-93
2023/04/22 10:54:30;;;;;;;3.63;2.08;;;;;;;22.12;33.99;101104.50;5032809;28;20026;-93
2023/04/22 10:57:18;;;;;;;4.90;2.03;;;;;;;22.03;34.07;101085.91;5034807;28;20025;-92
2023/04/22 10:59:53;;;;;;;3.88;2.50;;;;;;;22.18;34.05;101093.44;4999395;28;20025;-92
2023/04/22 11:02:19;;;;;;;2.97;2.10;;;;;;;22.08;34.47;101072.34;5014779;28;20021;-91
2023/04/22 11:04:45;;;;;;;3.17;1.80;;;;;;;22.19;34.46;101079.28;5032625;28;20075;-91
2023/04/22 11:07:19;;;;;;;3.83;2.10;;;;;;;22.28;34.68;101078.44;5015193;28;20029;-91
2023/04/22 11:09:45;;;;;;;4.72;2.70;;;;;;;22.35;33.97;101082.19;5031666;28;21107;-91
2023/04/22 11:12:40;;;;;;;4.93;2.10;;;;;;;22.44;34.01;101089.25;5033102;28;20026;-91
2023/04/22 11:15:21;;;;;;;2.78;1.75;;;;;;;22.23;34.13;101078.03;5032813;28;20029;-91
2023/04/22 11:17:51;;;;;;;3.42;1.85;;;;;;;22.22;34.52;101079.00;5031768;28;20053;-91
2023/04/22 11:20:16;;;;;;;4.65;1.95;;;;;;;22.49;34.46;101071.19;5014739;28;20040;-91